createdAt,value
2022-08-08T00:01:13.119Z,20.22
2022-08-08T00:04:28.328Z,20.21
2022-08-08T00:07:12.525Z,20.20
2022-08-08T00:09:55.253Z,20.19
2022-08-08T00:12:31.671Z,20.18
2022-08-08T00:15:24.371Z,20.19
2022-08-08T00:18:21.171Z,20.16
2022-08-08T00:20:58.593Z,20.16
2022-08-08T00:23:43.349Z,20.14
2022-08-08T00:26:30.025Z,20.13
2022-08-08T00:29:17.498Z,20.12
2022-08-08T00:32:20.244Z,20.12
2022-08-08T00:35:21.102Z,20.10
2022-08-08T00:38:32.212Z,20.09
2022-08-08T00:42:08.607Z,20.10
2022-08-08T00:45:29.352Z,20.10
2022-08-08T00:48:29.429Z,20.07
2022-08-08T00:51:08.265Z,20.06
2022-08-08T00:54:13.804Z,20.04
2022-08-08T00:57:12.769Z,20.04
2022-08-08T01:00:31.189Z,20.03
2022-08-08T01:03:57.546Z,20.02
2022-08-08T01:06:27.426Z,20.02
2022-08-08T01:09:34.955Z,20.01
2022-08-08T01:12:37.053Z,20.00
2022-08-08T01:15:53.293Z,20.00
2022-08-08T01:18:52.909Z,19.98
2022-08-08T01:22:12.195Z,19.98
2022-08-08T01:25:00.373Z,19.97
2022-08-08T01:27:46.356Z,19.97
2022-08-08T01:30:25.624Z,19.96
2022-08-08T01:33:27.592Z,19.96
2022-08-08T01:35:54.642Z,19.96
2022-08-08T01:38:37.113Z,19.95
2022-08-08T01:41:18.522Z,19.93
2022-08-08T01:44:03.644Z,19.93
2022-08-08T01:46:41.354Z,19.94
2022-08-08T01:49:22.758Z,19.93
2022-08-08T01:52:29.287Z,19.92
2022-08-08T01:55:25.813Z,19.91
2022-08-08T01:58:10.815Z,19.90
2022-08-08T02:01:17.312Z,19.90
2022-08-08T02:03:54.629Z,19.90
2022-08-08T02:06:36.928Z,19.90
2022-08-08T02:09:17.955Z,19.89
2022-08-08T02:11:59.141Z,19.86
2022-08-08T02:14:55.259Z,19.87
2022-08-08T02:17:44.360Z,19.88
2022-08-08T02:21:00.851Z,19.89
2022-08-08T02:23:35.407Z,19.88
2022-08-08T02:26:17.064Z,19.86
2022-08-08T02:28:59.540Z,19.87
2022-08-08T02:32:05.487Z,19.85
2022-08-08T02:35:07.817Z,19.85
2022-08-08T02:37:52.278Z,19.85
2022-08-08T02:40:29.845Z,19.84
2022-08-08T02:44:37.276Z,19.84
2022-08-08T02:47:10.846Z,19.86
2022-08-08T02:50:19.312Z,19.84
2022-08-08T02:53:24.489Z,19.84
2022-08-08T02:56:15.874Z,19.81
2022-08-08T02:59:25.944Z,19.81
2022-08-08T03:02:30.404Z,19.82
2022-08-08T03:05:45.442Z,19.81
2022-08-08T03:08:38.202Z,19.80
2022-08-08T03:11:25.735Z,19.79
2022-08-08T03:15:59.703Z,19.79
2022-08-08T03:17:39.479Z,19.78
2022-08-08T03:20:13.852Z,19.78
2022-08-08T03:22:47.924Z,19.77
2022-08-08T03:25:18.669Z,19.75
2022-08-08T03:27:57.705Z,19.73
2022-08-08T03:30:24.887Z,19.74
2022-08-08T03:33:56.745Z,19.73
2022-08-08T03:35:58.963Z,19.73
2022-08-08T03:38:57.107Z,19.74
2022-08-08T03:41:43.119Z,19.74
2022-08-08T03:44:00.427Z,19.73
2022-08-08T03:46:32.621Z,19.72
2022-08-08T03:49:09.854Z,19.71
2022-08-08T03:51:57.204Z,19.70
2022-08-08T03:54:41.699Z,19.70
2022-08-08T03:58:29.983Z,19.68
2022-08-08T04:00:11.336Z,19.68
2022-08-08T04:02:51.808Z,19.68
2022-08-08T04:05:28.209Z,19.68
2022-08-08T04:07:57.900Z,19.66
2022-08-08T04:10:26.022Z,19.67
2022-08-08T04:13:00.012Z,19.65
2022-08-08T04:15:38.355Z,19.65
2022-08-08T04:18:06.205Z,19.65
2022-08-08T04:20:36.237Z,19.62
2022-08-08T04:23:07.770Z,19.64
2022-08-08T04:25:38.405Z,19.63
2022-08-08T04:28:36.882Z,19.64
2022-08-08T04:30:55.295Z,19.63
2022-08-08T04:33:24.619Z,19.62
2022-08-08T04:35:53.925Z,19.61
2022-08-08T04:38:23.193Z,19.61
2022-08-08T04:40:51.763Z,19.60
2022-08-08T04:43:22.552Z,19.60
2022-08-08T04:45:59.524Z,19.59
2022-08-08T04:48:26.432Z,19.59
2022-08-08T04:50:53.509Z,19.59
2022-08-08T04:54:27.325Z,19.58
2022-08-08T04:56:07.638Z,19.59
2022-08-08T04:58:35.131Z,19.57
2022-08-08T05:01:09.064Z,19.57
2022-08-08T05:04:11.317Z,19.57
2022-08-08T05:06:28.954Z,19.50
2022-08-08T05:09:02.968Z,19.37
2022-08-08T05:11:39.399Z,19.26
2022-08-08T05:14:12.176Z,19.19
2022-08-08T05:16:52.889Z,19.14
2022-08-08T05:20:12.278Z,19.09
2022-08-08T05:22:13.738Z,19.19
2022-08-08T05:24:48.505Z,19.24
2022-08-08T05:27:16.042Z,19.28
2022-08-08T05:29:42.973Z,19.31
2022-08-08T05:32:09.933Z,19.34
2022-08-08T05:34:49.185Z,19.36
2022-08-08T05:37:39.268Z,19.36
2022-08-08T05:40:14.656Z,19.38
2022-08-08T05:42:46.021Z,19.41
2022-08-08T05:45:25.372Z,19.42
2022-08-08T05:48:08.123Z,19.21
2022-08-08T05:50:36.550Z,19.18
2022-08-08T05:53:53.660Z,19.15
2022-08-08T05:56:10.633Z,19.08
2022-08-08T05:58:58.006Z,19.17
2022-08-08T06:01:56.612Z,19.26
2022-08-08T06:04:24.507Z,19.29
2022-08-08T06:07:01.614Z,19.34
2022-08-08T06:09:58.936Z,19.37
2022-08-08T06:12:30.052Z,19.40
2022-08-08T06:15:02.774Z,19.42
2022-08-08T06:17:51.333Z,19.48
2022-08-08T06:20:20.968Z,19.48
2022-08-08T06:22:49.303Z,19.50
2022-08-08T06:25:18.417Z,19.52
2022-08-08T06:28:07.434Z,19.54
2022-08-08T06:30:36.331Z,19.56
2022-08-08T06:33:13.164Z,19.59
2022-08-08T06:36:07.821Z,19.62
2022-08-08T06:38:39.305Z,19.52
2022-08-08T06:41:13.212Z,19.45
2022-08-08T06:43:47.702Z,19.51
2022-08-08T06:46:24.346Z,19.53
2022-08-08T06:48:51.423Z,19.57
2022-08-08T06:51:22.402Z,19.59
2022-08-08T06:53:51.041Z,19.59
2022-08-08T06:56:24.382Z,19.61
2022-08-08T06:58:51.442Z,19.63
2022-08-08T07:02:18.075Z,19.66
2022-08-08T07:04:40.395Z,19.67
2022-08-08T07:07:11.561Z,19.69
2022-08-08T07:10:08.260Z,19.73
2022-08-08T07:12:43.041Z,19.75
2022-08-08T07:15:31.994Z,19.77
2022-08-08T07:18:36.064Z,19.78
2022-08-08T07:21:18.379Z,19.79
2022-08-08T07:24:09.693Z,19.82
2022-08-08T07:26:40.394Z,19.84
2022-08-08T07:29:08.096Z,19.85
2022-08-08T07:31:38.799Z,19.87
2022-08-08T07:34:08.770Z,19.88
2022-08-08T07:36:42.042Z,19.90
2022-08-08T07:39:22.556Z,19.91
2022-08-08T07:42:05.042Z,19.93
2022-08-08T07:44:37.421Z,19.95
2022-08-08T07:47:05.553Z,19.96
2022-08-08T07:49:32.623Z,20.01
2022-08-08T07:52:02.782Z,20.02
2022-08-08T07:54:43.598Z,20.01
2022-08-08T07:57:27.247Z,20.03
2022-08-08T07:59:59.907Z,20.06
2022-08-08T08:02:53.268Z,20.15
2022-08-08T08:05:45.273Z,20.51
2022-08-08T08:08:34.151Z,20.54
2022-08-08T08:11:04.291Z,20.57
2022-08-08T08:14:07.600Z,20.52
2022-08-08T08:16:40.966Z,20.48
2022-08-08T08:19:14.825Z,20.44
2022-08-08T08:21:57.790Z,20.45
2022-08-08T08:24:30.570Z,20.48
2022-08-08T08:27:00.122Z,20.51
2022-08-08T08:29:30.438Z,20.51
2022-08-08T08:32:03.191Z,20.49
2022-08-08T08:34:32.327Z,20.51
2022-08-08T08:37:08.505Z,20.55
2022-08-08T08:40:00.278Z,20.58
2022-08-08T08:42:32.025Z,20.60
2022-08-08T08:45:21.432Z,20.65
2022-08-08T08:47:58.383Z,20.69
2022-08-08T08:50:33.770Z,20.69
2022-08-08T08:53:27.511Z,20.73
2022-08-08T08:55:59.259Z,20.74
2022-08-08T08:58:41.581Z,20.76
2022-08-08T09:01:13.121Z,20.77
2022-08-08T09:03:47.105Z,20.78
2022-08-08T09:06:34.155Z,20.81
2022-08-08T09:09:26.215Z,20.86
2022-08-08T09:12:07.631Z,20.87
2022-08-08T09:14:42.097Z,20.90
2022-08-08T09:17:17.363Z,20.91
2022-08-08T09:22:00.131Z,20.95
2022-08-08T09:22:35.731Z,20.97
2022-08-08T09:25:04.737Z,20.99
2022-08-08T09:27:56.979Z,21.01
2022-08-08T09:30:20.144Z,21.04
2022-08-08T09:33:11.856Z,21.03
2022-08-08T09:35:49.059Z,21.05
2022-08-08T09:38:31.856Z,21.04
2022-08-08T09:41:05.037Z,21.04
2022-08-08T09:43:40.864Z,21.04
2022-08-08T09:46:31.096Z,21.03
2022-08-08T09:49:18.211Z,21.05
2022-08-08T09:52:06.719Z,21.04
2022-08-08T09:54:45.772Z,21.04
2022-08-08T09:57:19.034Z,21.02
2022-08-08T10:00:21.035Z,21.05
2022-08-08T10:02:41.089Z,21.04
2022-08-08T10:05:15.167Z,21.01
2022-08-08T10:07:51.549Z,21.01
2022-08-08T10:10:50.101Z,21.03
2022-08-08T10:13:26.067Z,21.06
2022-08-08T10:16:01.921Z,21.03
2022-08-08T10:18:35.772Z,21.05
2022-08-08T10:21:26.161Z,21.05
2022-08-08T10:23:59.991Z,21.04
2022-08-08T10:26:57.268Z,21.04
2022-08-08T10:29:38.382Z,21.05
2022-08-08T10:32:33.987Z,21.03
2022-08-08T10:35:11.862Z,21.04
2022-08-08T10:38:07.983Z,21.01
2022-08-08T10:40:38.480Z,20.99
2022-08-08T10:43:07.194Z,20.99
2022-08-08T10:45:56.411Z,20.99
2022-08-08T10:48:38.869Z,20.96
2022-08-08T10:51:30.873Z,20.93
2022-08-08T10:54:00.219Z,20.91
2022-08-08T10:56:36.382Z,20.93
2022-08-08T10:59:14.107Z,20.90
2022-08-08T11:01:49.347Z,20.89
2022-08-08T11:04:39.292Z,20.87
2022-08-08T11:07:07.229Z,20.85
2022-08-08T11:09:35.252Z,20.83
2022-08-08T11:12:12.548Z,20.82
2022-08-08T11:14:57.365Z,20.83
2022-08-08T11:17:59.934Z,20.80
2022-08-08T11:20:18.070Z,20.79
2022-08-08T11:22:54.323Z,20.81
2022-08-08T11:25:53.057Z,20.81
2022-08-08T11:28:16.886Z,20.84
2022-08-08T11:30:50.285Z,20.83
2022-08-08T11:33:53.135Z,20.83
2022-08-08T11:36:13.431Z,20.84
2022-08-08T11:38:53.937Z,20.82
2022-08-08T11:41:24.406Z,20.80
2022-08-08T11:43:53.925Z,20.79
2022-08-08T11:46:28.025Z,20.82
2022-08-08T11:48:58.380Z,20.83
2022-08-08T11:51:29.910Z,20.85
2022-08-08T11:54:27.167Z,20.89
2022-08-08T11:56:58.323Z,20.88
2022-08-08T12:00:01.306Z,20.92
2022-08-08T12:02:41.697Z,20.93
2022-08-08T12:05:12.514Z,20.95
2022-08-08T12:07:50.299Z,20.96
2022-08-08T12:10:24.968Z,20.99
2022-08-08T12:13:01.145Z,21.00
2022-08-08T12:15:42.704Z,21.03
2022-08-08T12:18:27.749Z,21.02
2022-08-08T12:20:58.769Z,21.04
2022-08-08T12:23:42.736Z,21.03
2022-08-08T12:26:41.649Z,21.05
2022-08-08T12:29:42.068Z,21.06
2022-08-08T12:32:20.115Z,21.09
2022-08-08T12:35:04.161Z,21.11
2022-08-08T12:37:41.586Z,21.12
2022-08-08T12:40:23.747Z,21.16
2022-08-08T12:42:52.817Z,21.18
2022-08-08T12:45:58.516Z,21.19
2022-08-08T12:48:38.064Z,21.22
2022-08-08T12:51:11.448Z,21.26
2022-08-08T12:53:58.773Z,21.26
2022-08-08T12:56:38.071Z,21.27
2022-08-08T12:59:27.193Z,21.26
2022-08-08T13:01:56.845Z,21.26
2022-08-08T13:04:26.993Z,21.29
2022-08-08T13:07:11.947Z,21.27
2022-08-08T13:10:04.843Z,21.29
2022-08-08T13:12:44.472Z,21.29
2022-08-08T13:15:19.516Z,21.32
2022-08-08T13:17:54.046Z,21.33
2022-08-08T13:20:45.515Z,21.34
2022-08-08T13:23:41.782Z,21.34
2022-08-08T13:26:14.661Z,21.35
2022-08-08T13:28:45.920Z,21.36
2022-08-08T13:31:17.137Z,21.40
2022-08-08T13:33:49.715Z,21.39
2022-08-08T13:36:25.741Z,21.42
2022-08-08T13:38:53.611Z,21.43
2022-08-08T13:41:21.811Z,21.45
2022-08-08T13:43:49.788Z,21.45
2022-08-08T13:46:27.098Z,21.47
2022-08-08T13:49:11.437Z,21.47
2022-08-08T13:52:35.759Z,21.49
2022-08-08T13:55:06.554Z,21.50
2022-08-08T13:58:07.049Z,21.48
2022-08-08T14:00:23.399Z,21.47
2022-08-08T14:03:07.682Z,21.49
2022-08-08T14:05:57.642Z,21.49
2022-08-08T14:08:29.878Z,21.50
2022-08-08T14:11:01.776Z,21.52
2022-08-08T14:13:34.311Z,21.52
2022-08-08T14:16:15.873Z,21.51
2022-08-08T14:18:58.179Z,21.52
2022-08-08T14:21:48.836Z,21.55
2022-08-08T14:24:34.830Z,21.55
2022-08-08T14:27:07.884Z,21.57
2022-08-08T14:29:40.325Z,21.57
2022-08-08T14:32:12.767Z,21.58
2022-08-08T14:34:53.542Z,21.58
2022-08-08T14:37:27.823Z,21.58
2022-08-08T14:40:05.971Z,21.58
2022-08-08T14:42:54.462Z,21.58
2022-08-08T14:45:33.101Z,21.57
2022-08-08T14:48:16.489Z,21.58
2022-08-08T14:50:46.932Z,21.58
2022-08-08T14:53:16.575Z,21.57
2022-08-08T14:55:45.104Z,21.55
2022-08-08T14:58:19.726Z,21.57
2022-08-08T15:00:49.435Z,21.57
2022-08-08T15:03:17.501Z,21.57
2022-08-08T15:05:54.297Z,21.56
2022-08-08T15:08:35.252Z,21.56
2022-08-08T15:11:19.195Z,21.58
2022-08-08T15:14:03.008Z,21.57
2022-08-08T15:16:34.241Z,21.56
2022-08-08T15:19:02.476Z,21.56
2022-08-08T15:21:30.167Z,21.59
2022-08-08T15:23:58.042Z,21.56
2022-08-08T15:26:28.955Z,21.54
2022-08-08T15:28:57.366Z,21.53
2022-08-08T15:31:55.527Z,21.53
2022-08-08T15:34:28.795Z,21.52
2022-08-08T15:37:04.993Z,21.51
2022-08-08T15:39:38.196Z,21.52
2022-08-08T15:42:10.259Z,21.52
2022-08-08T15:44:40.637Z,21.51
2022-08-08T15:47:16.047Z,21.52
2022-08-08T15:49:49.272Z,21.53
2022-08-08T15:52:18.384Z,21.53
2022-08-08T15:54:51.609Z,21.52
2022-08-08T15:57:21.970Z,21.52
2022-08-08T16:00:25.344Z,21.52
2022-08-08T16:02:44.588Z,21.52
2022-08-08T16:05:23.541Z,21.52
2022-08-08T16:07:53.875Z,21.51
2022-08-08T16:13:04.199Z,21.53
2022-08-08T16:13:30.874Z,21.50
2022-08-08T16:16:09.086Z,21.50
2022-08-08T16:18:40.869Z,21.50
2022-08-08T16:21:26.091Z,21.49
2022-08-08T16:23:56.911Z,21.50
2022-08-08T16:26:34.460Z,21.51
2022-08-08T16:29:08.956Z,21.52
2022-08-08T16:31:41.270Z,21.52
2022-08-08T16:34:10.336Z,21.52
2022-08-08T16:36:42.458Z,21.53
2022-08-08T16:39:28.062Z,21.51
2022-08-08T16:42:01.070Z,21.51
2022-08-08T16:44:34.248Z,21.51
2022-08-08T16:47:40.471Z,21.51
2022-08-08T16:50:15.589Z,21.51
2022-08-08T16:55:00.955Z,21.49
2022-08-08T16:55:53.446Z,21.48
2022-08-08T16:58:25.547Z,21.46
2022-08-08T17:00:53.836Z,21.48
2022-08-08T17:03:25.310Z,21.48
2022-08-08T17:06:36.032Z,21.50
2022-08-08T17:08:57.182Z,21.52
2022-08-08T17:11:28.074Z,21.50
2022-08-08T17:14:17.766Z,21.53
2022-08-08T17:16:51.863Z,21.55
2022-08-08T17:19:25.483Z,21.56
2022-08-08T17:21:54.484Z,21.56
2022-08-08T17:24:27.814Z,21.57
2022-08-08T17:26:58.040Z,21.59
2022-08-08T17:29:26.881Z,21.59
2022-08-08T17:31:53.824Z,21.62
2022-08-08T17:34:48.454Z,21.61
2022-08-08T17:37:09.272Z,21.61
2022-08-08T17:40:03.572Z,21.61
2022-08-08T17:42:27.954Z,21.61
2022-08-08T17:44:55.150Z,21.59
2022-08-08T17:47:28.223Z,21.59
2022-08-08T17:50:06.330Z,21.61
2022-08-08T17:52:35.530Z,21.62
2022-08-08T17:55:05.643Z,21.60
2022-08-08T17:57:38.427Z,21.61
2022-08-08T18:00:13.361Z,21.62
2022-08-08T18:02:58.094Z,21.61
2022-08-08T18:05:48.315Z,21.60
2022-08-08T18:08:38.386Z,21.61
2022-08-08T18:11:17.052Z,21.59
2022-08-08T18:13:46.335Z,21.58
2022-08-08T18:16:20.459Z,21.58
2022-08-08T18:18:56.398Z,21.60
2022-08-08T18:22:00.109Z,21.62
2022-08-08T18:24:21.459Z,21.63
2022-08-08T18:26:54.484Z,21.64
2022-08-08T18:29:29.750Z,21.66
2022-08-08T18:31:59.310Z,21.67
2022-08-08T18:34:27.772Z,21.67
2022-08-08T18:36:55.981Z,21.71
2022-08-08T18:39:27.816Z,21.73
2022-08-08T18:41:59.744Z,21.74
2022-08-08T18:44:34.733Z,21.73
2022-08-08T18:47:03.487Z,21.76
2022-08-08T18:49:54.803Z,21.75
2022-08-08T18:52:22.793Z,21.72
2022-08-08T18:54:59.781Z,21.75
2022-08-08T18:57:31.638Z,21.74
2022-08-08T19:00:03.106Z,21.75
2022-08-08T19:02:30.219Z,21.76
2022-08-08T19:04:57.435Z,21.73
2022-08-08T19:07:29.982Z,21.71
2022-08-08T19:10:14.653Z,21.70
2022-08-08T19:12:44.686Z,21.72
2022-08-08T19:15:21.791Z,21.74
2022-08-08T19:18:32.461Z,21.73
2022-08-08T19:20:40.213Z,21.69
2022-08-08T19:23:10.931Z,21.72
2022-08-08T19:26:19.750Z,21.71
2022-08-08T19:28:25.740Z,21.67
2022-08-08T19:31:04.244Z,21.67
2022-08-08T19:33:51.849Z,21.67
2022-08-08T19:36:27.507Z,21.65
2022-08-08T19:38:56.404Z,21.66
2022-08-08T19:41:33.651Z,21.65
2022-08-08T19:44:12.844Z,21.66
2022-08-08T19:46:50.855Z,21.64
2022-08-08T19:49:19.061Z,21.64
2022-08-08T19:51:46.282Z,21.63
2022-08-08T19:54:16.276Z,21.63
2022-08-08T19:56:48.811Z,21.63
2022-08-08T19:59:22.233Z,21.62
2022-08-08T20:02:03.090Z,21.60
2022-08-08T20:04:33.485Z,21.60
2022-08-08T20:08:30.226Z,21.59
2022-08-08T20:09:56.222Z,21.59
2022-08-08T20:12:32.911Z,21.56
2022-08-08T20:15:14.968Z,21.56
2022-08-08T20:17:46.349Z,21.57
2022-08-08T20:20:19.021Z,21.56
2022-08-08T20:22:52.599Z,21.55
2022-08-08T20:25:26.407Z,21.54
2022-08-08T20:27:57.414Z,21.54
2022-08-08T20:30:53.039Z,21.52
2022-08-08T20:35:58.190Z,21.51
2022-08-08T20:38:32.195Z,21.50
2022-08-08T20:41:16.961Z,21.49
2022-08-08T20:43:49.569Z,21.49
2022-08-08T20:46:25.336Z,21.51
2022-08-08T20:48:58.307Z,21.48
2022-08-08T20:51:32.378Z,21.48
2022-08-08T20:54:13.815Z,21.47
2022-08-08T20:57:04.595Z,21.48
2022-08-08T20:59:29.613Z,21.44
2022-08-08T21:02:06.670Z,21.45
2022-08-08T21:04:36.922Z,21.44
2022-08-08T21:07:13.240Z,21.42
2022-08-08T21:10:02.242Z,21.40
2022-08-08T21:12:37.002Z,21.37
2022-08-08T21:15:09.460Z,21.32
2022-08-08T21:17:37.295Z,21.30
2022-08-08T21:20:06.550Z,21.29
2022-08-08T21:22:34.312Z,21.26
2022-08-08T21:25:02.100Z,21.24
2022-08-08T21:28:05.358Z,21.22
2022-08-08T21:30:21.659Z,21.20
2022-08-08T21:32:52.059Z,21.17
2022-08-08T21:36:15.114Z,21.15
2022-08-08T21:38:16.481Z,21.15
2022-08-08T21:40:55.984Z,21.13
2022-08-08T21:43:32.974Z,21.12
2022-08-08T21:48:07.424Z,21.07
2022-08-08T21:48:51.778Z,21.08
2022-08-08T21:52:09.744Z,21.07
2022-08-08T21:54:31.914Z,21.04
2022-08-08T21:56:56.146Z,21.03
2022-08-08T21:59:23.279Z,20.99
2022-08-08T22:01:52.295Z,21.00
2022-08-08T22:04:24.781Z,20.99
2022-08-08T22:06:53.632Z,20.98
2022-08-08T22:09:26.910Z,20.96
2022-08-08T22:12:09.286Z,20.95
2022-08-08T22:14:37.132Z,20.93
2022-08-08T22:17:05.426Z,20.93
2022-08-08T22:20:13.046Z,20.91
2022-08-08T22:22:24.405Z,20.90
2022-08-08T22:24:55.841Z,20.90
2022-08-08T22:27:38.903Z,20.89
2022-08-08T22:30:13.546Z,20.88
2022-08-08T22:32:40.953Z,20.86
2022-08-08T22:35:08.651Z,20.85
2022-08-08T22:37:53.850Z,20.84
2022-08-08T22:40:22.061Z,20.82
2022-08-08T22:42:49.091Z,20.81
2022-08-08T22:45:16.873Z,20.79
2022-08-08T22:47:47.413Z,20.78
2022-08-08T22:50:25.883Z,20.80
2022-08-08T22:54:28.373Z,20.79
2022-08-08T22:55:59.007Z,20.76
2022-08-08T22:58:33.939Z,20.76
2022-08-08T23:01:30.564Z,20.77
2022-08-08T23:03:55.565Z,20.75
2022-08-08T23:06:25.121Z,20.75
2022-08-08T23:08:55.352Z,20.74
2022-08-08T23:11:30.969Z,20.74
2022-08-08T23:14:15.714Z,20.74
2022-08-08T23:16:47.011Z,20.74
2022-08-08T23:19:21.728Z,20.74
2022-08-08T23:21:48.828Z,20.73
2022-08-08T23:24:22.363Z,20.73
2022-08-08T23:26:53.117Z,20.72
2022-08-08T23:29:25.154Z,20.70
2022-08-08T23:31:52.322Z,20.70
2022-08-08T23:34:19.897Z,20.70
2022-08-08T23:36:48.206Z,20.70
2022-08-08T23:39:15.964Z,20.69
2022-08-08T23:41:46.063Z,20.67
2022-08-08T23:44:18.698Z,20.65
2022-08-08T23:49:00.077Z,20.65
2022-08-08T23:49:34.179Z,20.65
2022-08-08T23:52:05.956Z,20.64
2022-08-08T23:54:43.540Z,20.64
2022-08-08T23:57:38.812Z,20.62
